sensor_id;sensor_type;location;lat;lon;timestamp;P1;durP1;ratioP1;P2;durP2;ratioP2
13560;SDS011;6852;51.686;5.314;2022-07-29T00:01:49;3.33;;;1.00;;
13560;SDS011;6852;51.686;5.314;2022-07-29T00:04:18;3.70;;;1.10;;
13560;SDS011;6852;51.686;5.314;2022-07-29T00:06:47;2.70;;;1.30;;
13560;SDS011;6852;51.686;5.314;2022-07-29T00:09:14;2.87;;;1.20;;
13560;SDS011;6852;51.686;5.314;2022-07-29T00:11:41;2.93;;;0.97;;
13560;SDS011;6852;51.686;5.314;2022-07-29T00:14:08;2.17;;;1.17;;
13560;SDS011;6852;51.686;5.314;2022-07-29T00:16:35;1.40;;;1.27;;
13560;SDS011;6852;51.686;5.314;2022-07-29T00:19:03;3.93;;;1.10;;
13560;SDS011;6852;51.686;5.314;2022-07-29T00:21:33;1.80;;;1.20;;
13560;SDS011;6852;51.686;5.314;2022-07-29T00:24:00;3.93;;;1.00;;
13560;SDS011;6852;51.686;5.314;2022-07-29T00:26:27;4.57;;;1.30;;
13560;SDS011;6852;51.686;5.314;2022-07-29T00:28:58;3.30;;;1.30;;
13560;SDS011;6852;51.686;5.314;2022-07-29T00:31:46;2.30;;;1.00;;
13560;SDS011;6852;51.686;5.314;2022-07-29T00:34:13;2.20;;;1.30;;
13560;SDS011;6852;51.686;5.314;2022-07-29T00:36:58;3.57;;;1.20;;
13560;SDS011;6852;51.686;5.314;2022-07-29T00:39:26;4.10;;;1.30;;
13560;SDS011;6852;51.686;5.314;2022-07-29T00:41:54;2.73;;;1.03;;
13560;SDS011;6852;51.686;5.314;2022-07-29T00:44:21;4.37;;;1.20;;
13560;SDS011;6852;51.686;5.314;2022-07-29T00:46:48;3.90;;;1.37;;
13560;SDS011;6852;51.686;5.314;2022-07-29T00:49:15;2.40;;;1.10;;
13560;SDS011;6852;51.686;5.314;2022-07-29T00:51:42;2.27;;;1.20;;
13560;SDS011;6852;51.686;5.314;2022-07-29T00:54:09;3.73;;;1.20;;
13560;SDS011;6852;51.686;5.314;2022-07-29T00:56:36;1.87;;;1.10;;
13560;SDS011;6852;51.686;5.314;2022-07-29T00:59:03;2.90;;;1.30;;
13560;SDS011;6852;51.686;5.314;2022-07-29T01:01:30;7.37;;;1.33;;
13560;SDS011;6852;51.686;5.314;2022-07-29T01:03:58;2.40;;;1.20;;
13560;SDS011;6852;51.686;5.314;2022-07-29T01:06:25;4.23;;;1.20;;
13560;SDS011;6852;51.686;5.314;2022-07-29T01:08:53;3.93;;;1.40;;
13560;SDS011;6852;51.686;5.314;2022-07-29T01:11:22;1.93;;;1.20;;
13560;SDS011;6852;51.686;5.314;2022-07-29T01:13:50;1.80;;;1.23;;
13560;SDS011;6852;51.686;5.314;2022-07-29T01:16:24;2.37;;;1.33;;
13560;SDS011;6852;51.686;5.314;2022-07-29T01:19:03;2.67;;;1.47;;
13560;SDS011;6852;51.686;5.314;2022-07-29T01:30:14;2.13;;;1.27;;
13560;SDS011;6852;51.686;5.314;2022-07-29T01:32:41;3.67;;;1.40;;
13560;SDS011;6852;51.686;5.314;2022-07-29T01:35:19;1.60;;;1.37;;
13560;SDS011;6852;51.686;5.314;2022-07-29T01:38:00;3.17;;;1.40;;
13560;SDS011;6852;51.686;5.314;2022-07-29T01:40:36;6.10;;;1.20;;
13560;SDS011;6852;51.686;5.314;2022-07-29T01:43:12;1.40;;;1.27;;
13560;SDS011;6852;51.686;5.314;2022-07-29T01:53:48;4.43;;;1.30;;
13560;SDS011;6852;51.686;5.314;2022-07-29T01:56:21;2.10;;;1.30;;
13560;SDS011;6852;51.686;5.314;2022-07-29T01:58:50;3.43;;;2.17;;
13560;SDS011;6852;51.686;5.314;2022-07-29T02:01:20;3.13;;;1.40;;
13560;SDS011;6852;51.686;5.314;2022-07-29T02:03:50;1.87;;;1.37;;
13560;SDS011;6852;51.686;5.314;2022-07-29T02:06:21;3.17;;;1.30;;
13560;SDS011;6852;51.686;5.314;2022-07-29T02:08:50;8.77;;;1.70;;
13560;SDS011;6852;51.686;5.314;2022-07-29T02:11:19;3.07;;;1.37;;
13560;SDS011;6852;51.686;5.314;2022-07-29T02:13:46;5.17;;;1.27;;
13560;SDS011;6852;51.686;5.314;2022-07-29T02:16:14;1.17;;;1.07;;
13560;SDS011;6852;51.686;5.314;2022-07-29T02:18:45;5.93;;;1.43;;
13560;SDS011;6852;51.686;5.314;2022-07-29T02:21:15;4.20;;;1.50;;
13560;SDS011;6852;51.686;5.314;2022-07-29T02:23:46;4.30;;;1.40;;
13560;SDS011;6852;51.686;5.314;2022-07-29T02:26:17;2.60;;;0.93;;
13560;SDS011;6852;51.686;5.314;2022-07-29T02:28:45;2.30;;;1.10;;
13560;SDS011;6852;51.686;5.314;2022-07-29T02:31:14;3.50;;;1.53;;
13560;SDS011;6852;51.686;5.314;2022-07-29T02:33:44;1.83;;;1.30;;
13560;SDS011;6852;51.686;5.314;2022-07-29T02:36:13;2.00;;;1.50;;
13560;SDS011;6852;51.686;5.314;2022-07-29T02:38:42;6.70;;;1.63;;
13560;SDS011;6852;51.686;5.314;2022-07-29T02:42:05;2.33;;;1.50;;
13560;SDS011;6852;51.686;5.314;2022-07-29T02:44:17;1.77;;;1.33;;
13560;SDS011;6852;51.686;5.314;2022-07-29T02:46:48;3.03;;;1.57;;
13560;SDS011;6852;51.686;5.314;2022-07-29T02:52:23;5.17;;;1.60;;
13560;SDS011;6852;51.686;5.314;2022-07-29T02:55:15;3.03;;;1.43;;
13560;SDS011;6852;51.686;5.314;2022-07-29T02:58:38;2.03;;;1.40;;
13560;SDS011;6852;51.686;5.314;2022-07-29T03:00:46;4.50;;;1.80;;
13560;SDS011;6852;51.686;5.314;2022-07-29T03:03:15;2.70;;;1.37;;
13560;SDS011;6852;51.686;5.314;2022-07-29T03:05:44;3.43;;;1.30;;
13560;SDS011;6852;51.686;5.314;2022-07-29T03:08:14;2.97;;;1.70;;
13560;SDS011;6852;51.686;5.314;2022-07-29T03:10:43;4.23;;;1.60;;
13560;SDS011;6852;51.686;5.314;2022-07-29T03:13:11;3.43;;;1.70;;
13560;SDS011;6852;51.686;5.314;2022-07-29T03:15:39;1.47;;;1.37;;
13560;SDS011;6852;51.686;5.314;2022-07-29T03:18:10;4.47;;;1.70;;
13560;SDS011;6852;51.686;5.314;2022-07-29T03:20:38;2.17;;;1.60;;
13560;SDS011;6852;51.686;5.314;2022-07-29T03:23:06;6.07;;;1.70;;
13560;SDS011;6852;51.686;5.314;2022-07-29T03:25:34;2.70;;;1.70;;
13560;SDS011;6852;51.686;5.314;2022-07-29T03:28:01;1.60;;;1.50;;
13560;SDS011;6852;51.686;5.314;2022-07-29T03:30:28;2.50;;;1.40;;
13560;SDS011;6852;51.686;5.314;2022-07-29T03:32:57;3.97;;;1.57;;
13560;SDS011;6852;51.686;5.314;2022-07-29T03:35:27;3.73;;;1.63;;
13560;SDS011;6852;51.686;5.314;2022-07-29T03:37:56;2.07;;;1.40;;
13560;SDS011;6852;51.686;5.314;2022-07-29T03:40:26;2.00;;;1.77;;
13560;SDS011;6852;51.686;5.314;2022-07-29T03:42:57;4.03;;;2.10;;
13560;SDS011;6852;51.686;5.314;2022-07-29T03:45:26;2.20;;;1.60;;
13560;SDS011;6852;51.686;5.314;2022-07-29T03:47:57;1.97;;;1.70;;
13560;SDS011;6852;51.686;5.314;2022-07-29T03:50:28;3.13;;;1.57;;
13560;SDS011;6852;51.686;5.314;2022-07-29T03:52:59;3.87;;;1.47;;
13560;SDS011;6852;51.686;5.314;2022-07-29T03:55:28;3.03;;;1.43;;
13560;SDS011;6852;51.686;5.314;2022-07-29T03:57:58;4.30;;;1.70;;
13560;SDS011;6852;51.686;5.314;2022-07-29T04:00:28;1.90;;;1.80;;
13560;SDS011;6852;51.686;5.314;2022-07-29T04:02:56;2.03;;;1.40;;
13560;SDS011;6852;51.686;5.314;2022-07-29T04:05:24;2.37;;;1.60;;
13560;SDS011;6852;51.686;5.314;2022-07-29T04:07:51;2.27;;;1.33;;
13560;SDS011;6852;51.686;5.314;2022-07-29T04:10:18;4.20;;;1.97;;
13560;SDS011;6852;51.686;5.314;2022-07-29T04:12:57;3.30;;;2.00;;
13560;SDS011;6852;51.686;5.314;2022-07-29T04:15:24;6.03;;;1.93;;
13560;SDS011;6852;51.686;5.314;2022-07-29T04:17:56;2.43;;;1.90;;
13560;SDS011;6852;51.686;5.314;2022-07-29T04:20:23;4.30;;;2.10;;
13560;SDS011;6852;51.686;5.314;2022-07-29T04:22:50;3.37;;;1.90;;
13560;SDS011;6852;51.686;5.314;2022-07-29T04:25:17;5.27;;;2.20;;
13560;SDS011;6852;51.686;5.314;2022-07-29T04:27:44;4.07;;;2.00;;
13560;SDS011;6852;51.686;5.314;2022-07-29T04:30:26;2.23;;;1.77;;
13560;SDS011;6852;51.686;5.314;2022-07-29T04:32:54;2.07;;;1.87;;
13560;SDS011;6852;51.686;5.314;2022-07-29T04:35:21;3.10;;;2.00;;
13560;SDS011;6852;51.686;5.314;2022-07-29T04:37:48;2.53;;;1.90;;
13560;SDS011;6852;51.686;5.314;2022-07-29T04:40:15;5.83;;;2.20;;
13560;SDS011;6852;51.686;5.314;2022-07-29T04:42:43;5.80;;;1.87;;
13560;SDS011;6852;51.686;5.314;2022-07-29T04:45:11;2.10;;;1.80;;
13560;SDS011;6852;51.686;5.314;2022-07-29T04:47:39;3.43;;;2.00;;
13560;SDS011;6852;51.686;5.314;2022-07-29T04:50:07;2.10;;;1.73;;
13560;SDS011;6852;51.686;5.314;2022-07-29T04:52:38;5.40;;;1.90;;
13560;SDS011;6852;51.686;5.314;2022-07-29T04:55:05;4.23;;;2.00;;
13560;SDS011;6852;51.686;5.314;2022-07-29T04:57:32;3.17;;;2.17;;
13560;SDS011;6852;51.686;5.314;2022-07-29T05:00:00;5.07;;;2.00;;
13560;SDS011;6852;51.686;5.314;2022-07-29T05:02:27;4.17;;;2.20;;
13560;SDS011;6852;51.686;5.314;2022-07-29T05:04:54;4.03;;;1.73;;
13560;SDS011;6852;51.686;5.314;2022-07-29T05:07:21;2.67;;;1.90;;
13560;SDS011;6852;51.686;5.314;2022-07-29T05:09:48;4.57;;;2.10;;
13560;SDS011;6852;51.686;5.314;2022-07-29T05:12:15;3.43;;;2.60;;
13560;SDS011;6852;51.686;5.314;2022-07-29T05:14:42;4.00;;;2.17;;
13560;SDS011;6852;51.686;5.314;2022-07-29T05:17:09;8.73;;;2.40;;
13560;SDS011;6852;51.686;5.314;2022-07-29T05:19:37;3.53;;;2.00;;
13560;SDS011;6852;51.686;5.314;2022-07-29T05:22:04;3.53;;;2.27;;
13560;SDS011;6852;51.686;5.314;2022-07-29T05:24:32;2.73;;;1.77;;
13560;SDS011;6852;51.686;5.314;2022-07-29T05:26:58;3.27;;;2.53;;
13560;SDS011;6852;51.686;5.314;2022-07-29T05:29:26;5.53;;;2.60;;
13560;SDS011;6852;51.686;5.314;2022-07-29T05:32:13;6.63;;;2.20;;
13560;SDS011;6852;51.686;5.314;2022-07-29T05:34:43;3.10;;;2.20;;
13560;SDS011;6852;51.686;5.314;2022-07-29T05:37:17;7.80;;;3.20;;
13560;SDS011;6852;51.686;5.314;2022-07-29T05:39:47;4.73;;;2.50;;
13560;SDS011;6852;51.686;5.314;2022-07-29T05:42:22;5.93;;;2.53;;
13560;SDS011;6852;51.686;5.314;2022-07-29T05:44:49;2.20;;;2.00;;
13560;SDS011;6852;51.686;5.314;2022-07-29T05:47:17;6.13;;;2.63;;
13560;SDS011;6852;51.686;5.314;2022-07-29T05:49:47;5.13;;;2.63;;
13560;SDS011;6852;51.686;5.314;2022-07-29T05:52:15;5.23;;;2.37;;
13560;SDS011;6852;51.686;5.314;2022-07-29T05:54:42;4.57;;;2.57;;
13560;SDS011;6852;51.686;5.314;2022-07-29T05:57:16;4.67;;;2.70;;
13560;SDS011;6852;51.686;5.314;2022-07-29T05:59:44;4.40;;;2.93;;
13560;SDS011;6852;51.686;5.314;2022-07-29T06:02:11;6.00;;;2.67;;
13560;SDS011;6852;51.686;5.314;2022-07-29T06:04:39;7.63;;;2.93;;
13560;SDS011;6852;51.686;5.314;2022-07-29T06:07:06;4.13;;;2.87;;
13560;SDS011;6852;51.686;5.314;2022-07-29T06:09:34;3.37;;;2.87;;
13560;SDS011;6852;51.686;5.314;2022-07-29T06:12:01;2.97;;;2.50;;
13560;SDS011;6852;51.686;5.314;2022-07-29T06:14:31;4.17;;;2.53;;
13560;SDS011;6852;51.686;5.314;2022-07-29T06:16:58;3.17;;;2.83;;
13560;SDS011;6852;51.686;5.314;2022-07-29T06:19:26;4.90;;;2.90;;
13560;SDS011;6852;51.686;5.314;2022-07-29T06:21:53;4.43;;;2.70;;
13560;SDS011;6852;51.686;5.314;2022-07-29T06:24:19;4.57;;;2.90;;
13560;SDS011;6852;51.686;5.314;2022-07-29T06:26:46;3.97;;;3.07;;
13560;SDS011;6852;51.686;5.314;2022-07-29T06:29:14;3.47;;;2.97;;
13560;SDS011;6852;51.686;5.314;2022-07-29T06:31:41;9.77;;;3.97;;
13560;SDS011;6852;51.686;5.314;2022-07-29T06:34:08;4.67;;;3.17;;
13560;SDS011;6852;51.686;5.314;2022-07-29T06:36:36;3.80;;;3.13;;
13560;SDS011;6852;51.686;5.314;2022-07-29T06:39:06;5.77;;;3.40;;
13560;SDS011;6852;51.686;5.314;2022-07-29T06:41:34;5.43;;;2.73;;
13560;SDS011;6852;51.686;5.314;2022-07-29T06:44:01;5.20;;;3.17;;
13560;SDS011;6852;51.686;5.314;2022-07-29T06:46:30;6.87;;;3.40;;
13560;SDS011;6852;51.686;5.314;2022-07-29T06:48:58;6.10;;;3.03;;
13560;SDS011;6852;51.686;5.314;2022-07-29T06:51:29;5.83;;;3.03;;
13560;SDS011;6852;51.686;5.314;2022-07-29T06:53:59;4.57;;;3.27;;
13560;SDS011;6852;51.686;5.314;2022-07-29T06:56:32;4.57;;;3.10;;
13560;SDS011;6852;51.686;5.314;2022-07-29T06:59:05;3.60;;;3.30;;
13560;SDS011;6852;51.686;5.314;2022-07-29T07:01:34;6.27;;;3.00;;
13560;SDS011;6852;51.686;5.314;2022-07-29T07:04:03;6.37;;;3.83;;
13560;SDS011;6852;51.686;5.314;2022-07-29T07:06:30;3.73;;;3.33;;
13560;SDS011;6852;51.686;5.314;2022-07-29T07:08:57;4.73;;;3.10;;
13560;SDS011;6852;51.686;5.314;2022-07-29T07:11:24;5.57;;;3.70;;
13560;SDS011;6852;51.686;5.314;2022-07-29T07:13:51;5.50;;;3.67;;
13560;SDS011;6852;51.686;5.314;2022-07-29T07:16:18;3.60;;;3.13;;
13560;SDS011;6852;51.686;5.314;2022-07-29T07:18:46;3.50;;;2.93;;
13560;SDS011;6852;51.686;5.314;2022-07-29T07:21:13;6.10;;;3.40;;
13560;SDS011;6852;51.686;5.314;2022-07-29T07:23:44;5.60;;;3.43;;
13560;SDS011;6852;51.686;5.314;2022-07-29T07:26:12;4.90;;;2.57;;
13560;SDS011;6852;51.686;5.314;2022-07-29T07:28:39;6.80;;;3.30;;
13560;SDS011;6852;51.686;5.314;2022-07-29T07:31:06;4.73;;;3.20;;
13560;SDS011;6852;51.686;5.314;2022-07-29T07:33:33;5.97;;;3.27;;
13560;SDS011;6852;51.686;5.314;2022-07-29T07:36:00;6.33;;;3.63;;
13560;SDS011;6852;51.686;5.314;2022-07-29T07:38:27;5.33;;;3.17;;
13560;SDS011;6852;51.686;5.314;2022-07-29T07:40:54;3.57;;;3.27;;
13560;SDS011;6852;51.686;5.314;2022-07-29T07:43:21;5.17;;;3.30;;
13560;SDS011;6852;51.686;5.314;2022-07-29T07:45:48;5.87;;;3.53;;
13560;SDS011;6852;51.686;5.314;2022-07-29T07:48:15;3.77;;;3.10;;
13560;SDS011;6852;51.686;5.314;2022-07-29T07:50:42;4.30;;;3.40;;
13560;SDS011;6852;51.686;5.314;2022-07-29T07:53:10;4.40;;;3.50;;
13560;SDS011;6852;51.686;5.314;2022-07-29T07:55:41;3.70;;;3.40;;
13560;SDS011;6852;51.686;5.314;2022-07-29T07:58:28;5.13;;;3.43;;
13560;SDS011;6852;51.686;5.314;2022-07-29T08:00:56;6.47;;;3.47;;
13560;SDS011;6852;51.686;5.314;2022-07-29T08:03:23;4.40;;;3.17;;
13560;SDS011;6852;51.686;5.314;2022-07-29T08:05:50;4.10;;;2.80;;
13560;SDS011;6852;51.686;5.314;2022-07-29T08:08:18;3.20;;;2.90;;
13560;SDS011;6852;51.686;5.314;2022-07-29T08:10:45;3.30;;;2.97;;
13560;SDS011;6852;51.686;5.314;2022-07-29T08:13:19;4.77;;;2.80;;
13560;SDS011;6852;51.686;5.314;2022-07-29T08:15:47;6.40;;;2.93;;
13560;SDS011;6852;51.686;5.314;2022-07-29T08:18:24;3.17;;;2.50;;
13560;SDS011;6852;51.686;5.314;2022-07-29T08:20:55;5.13;;;2.90;;
13560;SDS011;6852;51.686;5.314;2022-07-29T08:23:23;3.37;;;2.40;;
13560;SDS011;6852;51.686;5.314;2022-07-29T08:26:13;3.37;;;2.40;;
13560;SDS011;6852;51.686;5.314;2022-07-29T08:28:41;3.87;;;2.27;;
13560;SDS011;6852;51.686;5.314;2022-07-29T08:31:13;3.53;;;2.80;;
13560;SDS011;6852;51.686;5.314;2022-07-29T08:33:40;3.83;;;2.67;;
13560;SDS011;6852;51.686;5.314;2022-07-29T08:36:08;4.43;;;2.55;;
13560;SDS011;6852;51.686;5.314;2022-07-29T08:38:35;2.90;;;1.90;;
13560;SDS011;6852;51.686;5.314;2022-07-29T08:41:02;3.87;;;2.30;;
13560;SDS011;6852;51.686;5.314;2022-07-29T08:43:29;5.30;;;2.87;;
13560;SDS011;6852;51.686;5.314;2022-07-29T08:45:56;2.60;;;2.20;;
13560;SDS011;6852;51.686;5.314;2022-07-29T08:48:23;6.40;;;2.77;;
13560;SDS011;6852;51.686;5.314;2022-07-29T08:50:55;4.13;;;2.30;;
13560;SDS011;6852;51.686;5.314;2022-07-29T08:53:26;4.97;;;2.70;;
13560;SDS011;6852;51.686;5.314;2022-07-29T08:55:54;3.73;;;2.40;;
13560;SDS011;6852;51.686;5.314;2022-07-29T08:58:25;4.17;;;2.60;;
13560;SDS011;6852;51.686;5.314;2022-07-29T09:00:55;4.23;;;2.47;;
13560;SDS011;6852;51.686;5.314;2022-07-29T09:03:24;3.57;;;2.37;;
13560;SDS011;6852;51.686;5.314;2022-07-29T09:05:53;3.33;;;1.93;;
13560;SDS011;6852;51.686;5.314;2022-07-29T09:08:21;6.97;;;2.57;;
13560;SDS011;6852;51.686;5.314;2022-07-29T09:10:49;4.60;;;1.87;;
13560;SDS011;6852;51.686;5.314;2022-07-29T09:13:17;4.83;;;2.03;;
13560;SDS011;6852;51.686;5.314;2022-07-29T09:15:49;3.20;;;1.77;;
13560;SDS011;6852;51.686;5.314;2022-07-29T09:21:10;2.90;;;1.80;;
13560;SDS011;6852;51.686;5.314;2022-07-29T09:24:08;3.73;;;2.17;;
13560;SDS011;6852;51.686;5.314;2022-07-29T09:26:38;2.20;;;1.77;;
13560;SDS011;6852;51.686;5.314;2022-07-29T09:31:44;3.13;;;1.70;;
13560;SDS011;6852;51.686;5.314;2022-07-29T09:34:16;6.57;;;2.40;;
13560;SDS011;6852;51.686;5.314;2022-07-29T09:36:49;3.63;;;1.90;;
13560;SDS011;6852;51.686;5.314;2022-07-29T09:42:11;4.40;;;1.50;;
13560;SDS011;6852;51.686;5.314;2022-07-29T09:44:42;3.63;;;1.47;;
13560;SDS011;6852;51.686;5.314;2022-07-29T09:47:15;2.47;;;1.50;;
13560;SDS011;6852;51.686;5.314;2022-07-29T09:49:57;5.57;;;1.77;;
13560;SDS011;6852;51.686;5.314;2022-07-29T09:52:29;2.80;;;1.67;;
13560;SDS011;6852;51.686;5.314;2022-07-29T09:55:04;3.60;;;1.80;;
13560;SDS011;6852;51.686;5.314;2022-07-29T09:57:38;4.37;;;2.50;;
13560;SDS011;6852;51.686;5.314;2022-07-29T10:02:38;4.43;;;1.70;;
13560;SDS011;6852;51.686;5.314;2022-07-29T10:05:24;3.63;;;1.80;;
13560;SDS011;6852;51.686;5.314;2022-07-29T10:08:02;2.73;;;1.80;;
13560;SDS011;6852;51.686;5.314;2022-07-29T10:10:30;5.07;;;1.97;;
13560;SDS011;6852;51.686;5.314;2022-07-29T10:13:00;3.43;;;1.73;;
13560;SDS011;6852;51.686;5.314;2022-07-29T10:15:37;4.00;;;1.70;;
13560;SDS011;6852;51.686;5.314;2022-07-29T10:18:07;5.23;;;1.93;;
13560;SDS011;6852;51.686;5.314;2022-07-29T10:20:35;3.83;;;2.33;;
13560;SDS011;6852;51.686;5.314;2022-07-29T10:23:03;8.80;;;2.10;;
13560;SDS011;6852;51.686;5.314;2022-07-29T10:25:30;2.60;;;1.40;;
13560;SDS011;6852;51.686;5.314;2022-07-29T10:27:58;2.60;;;1.80;;
13560;SDS011;6852;51.686;5.314;2022-07-29T10:30:25;2.67;;;1.60;;
13560;SDS011;6852;51.686;5.314;2022-07-29T10:41:47;2.67;;;2.00;;
13560;SDS011;6852;51.686;5.314;2022-07-29T10:44:25;4.27;;;2.07;;
13560;SDS011;6852;51.686;5.314;2022-07-29T10:46:53;2.83;;;1.80;;
13560;SDS011;6852;51.686;5.314;2022-07-29T10:52:03;3.20;;;1.60;;
13560;SDS011;6852;51.686;5.314;2022-07-29T10:59:44;7.47;;;2.00;;
13560;SDS011;6852;51.686;5.314;2022-07-29T11:05:14;4.73;;;1.80;;
13560;SDS011;6852;51.686;5.314;2022-07-29T11:10:46;5.63;;;2.17;;
13560;SDS011;6852;51.686;5.314;2022-07-29T11:16:09;11.63;;;3.10;;
13560;SDS011;6852;51.686;5.314;2022-07-29T11:18:36;6.00;;;1.90;;
13560;SDS011;6852;51.686;5.314;2022-07-29T11:21:39;4.23;;;1.90;;
13560;SDS011;6852;51.686;5.314;2022-07-29T11:24:21;3.40;;;2.07;;
13560;SDS011;6852;51.686;5.314;2022-07-29T11:27:10;3.00;;;1.60;;
13560;SDS011;6852;51.686;5.314;2022-07-29T11:29:53;2.03;;;1.60;;
13560;SDS011;6852;51.686;5.314;2022-07-29T11:32:24;6.07;;;1.60;;
13560;SDS011;6852;51.686;5.314;2022-07-29T11:43:57;4.50;;;2.00;;
13560;SDS011;6852;51.686;5.314;2022-07-29T11:46:46;5.53;;;1.73;;
13560;SDS011;6852;51.686;5.314;2022-07-29T11:49:18;5.87;;;1.97;;
13560;SDS011;6852;51.686;5.314;2022-07-29T11:51:58;3.27;;;2.23;;
13560;SDS011;6852;51.686;5.314;2022-07-29T11:54:32;6.10;;;2.40;;
13560;SDS011;6852;51.686;5.314;2022-07-29T11:57:20;2.83;;;2.53;;
13560;SDS011;6852;51.686;5.314;2022-07-29T12:00:01;4.23;;;1.77;;
13560;SDS011;6852;51.686;5.314;2022-07-29T12:02:41;4.03;;;1.97;;
13560;SDS011;6852;51.686;5.314;2022-07-29T12:05:14;3.55;;;2.00;;
13560;SDS011;6852;51.686;5.314;2022-07-29T12:08:20;2.65;;;1.67;;
13560;SDS011;6852;51.686;5.314;2022-07-29T12:10:49;3.27;;;1.70;;
13560;SDS011;6852;51.686;5.314;2022-07-29T12:13:20;4.07;;;2.13;;
13560;SDS011;6852;51.686;5.314;2022-07-29T12:16:03;4.03;;;1.70;;
13560;SDS011;6852;51.686;5.314;2022-07-29T12:18:31;4.10;;;1.77;;
13560;SDS011;6852;51.686;5.314;2022-07-29T12:20:59;3.03;;;1.73;;
13560;SDS011;6852;51.686;5.314;2022-07-29T12:23:32;6.70;;;2.00;;
13560;SDS011;6852;51.686;5.314;2022-07-29T12:26:04;4.37;;;2.03;;
13560;SDS011;6852;51.686;5.314;2022-07-29T12:28:39;3.70;;;1.50;;
13560;SDS011;6852;51.686;5.314;2022-07-29T12:31:08;2.70;;;1.47;;
13560;SDS011;6852;51.686;5.314;2022-07-29T12:34:00;2.53;;;1.73;;
13560;SDS011;6852;51.686;5.314;2022-07-29T12:36:27;4.70;;;1.40;;
13560;SDS011;6852;51.686;5.314;2022-07-29T12:38:54;3.30;;;1.23;;
13560;SDS011;6852;51.686;5.314;2022-07-29T12:41:21;4.97;;;1.70;;
13560;SDS011;6852;51.686;5.314;2022-07-29T12:43:52;2.58;;;1.40;;
13560;SDS011;6852;51.686;5.314;2022-07-29T12:46:20;4.45;;;1.60;;
13560;SDS011;6852;51.686;5.314;2022-07-29T12:48:50;5.80;;;1.63;;
13560;SDS011;6852;51.686;5.314;2022-07-29T12:54:07;3.08;;;1.35;;
13560;SDS011;6852;51.686;5.314;2022-07-29T12:56:37;4.30;;;1.55;;
13560;SDS011;6852;51.686;5.314;2022-07-29T13:01:44;2.65;;;1.20;;
13560;SDS011;6852;51.686;5.314;2022-07-29T13:04:31;6.97;;;1.80;;
13560;SDS011;6852;51.686;5.314;2022-07-29T13:09:43;4.15;;;1.60;;
13560;SDS011;6852;51.686;5.314;2022-07-29T13:12:12;3.33;;;1.48;;
13560;SDS011;6852;51.686;5.314;2022-07-29T13:14:41;1.95;;;1.42;;
13560;SDS011;6852;51.686;5.314;2022-07-29T13:17:16;4.63;;;1.63;;
13560;SDS011;6852;51.686;5.314;2022-07-29T13:19:48;3.65;;;1.60;;
13560;SDS011;6852;51.686;5.314;2022-07-29T13:22:20;4.60;;;1.52;;
13560;SDS011;6852;51.686;5.314;2022-07-29T13:27:20;4.90;;;1.47;;
13560;SDS011;6852;51.686;5.314;2022-07-29T13:29:49;2.00;;;1.37;;
13560;SDS011;6852;51.686;5.314;2022-07-29T13:32:19;4.28;;;1.58;;
13560;SDS011;6852;51.686;5.314;2022-07-29T13:34:54;4.40;;;1.60;;
13560;SDS011;6852;51.686;5.314;2022-07-29T13:37:21;3.92;;;1.80;;
13560;SDS011;6852;51.686;5.314;2022-07-29T13:39:49;5.57;;;1.90;;
13560;SDS011;6852;51.686;5.314;2022-07-29T13:42:18;4.13;;;1.70;;
13560;SDS011;6852;51.686;5.314;2022-07-29T13:44:45;2.97;;;1.45;;
13560;SDS011;6852;51.686;5.314;2022-07-29T13:47:14;4.95;;;1.70;;
13560;SDS011;6852;51.686;5.314;2022-07-29T13:49:42;3.38;;;1.58;;
13560;SDS011;6852;51.686;5.314;2022-07-29T13:52:09;2.88;;;1.48;;
13560;SDS011;6852;51.686;5.314;2022-07-29T13:54:36;6.10;;;1.60;;
13560;SDS011;6852;51.686;5.314;2022-07-29T13:57:08;3.50;;;1.40;;
13560;SDS011;6852;51.686;5.314;2022-07-29T13:59:39;2.63;;;1.60;;
13560;SDS011;6852;51.686;5.314;2022-07-29T14:02:08;2.05;;;1.60;;
13560;SDS011;6852;51.686;5.314;2022-07-29T14:04:36;3.20;;;1.58;;
13560;SDS011;6852;51.686;5.314;2022-07-29T14:07:05;4.40;;;1.60;;
13560;SDS011;6852;51.686;5.314;2022-07-29T14:09:32;3.35;;;1.38;;
13560;SDS011;6852;51.686;5.314;2022-07-29T14:12:07;2.67;;;1.15;;
13560;SDS011;6852;51.686;5.314;2022-07-29T14:14:34;3.33;;;1.80;;
13560;SDS011;6852;51.686;5.314;2022-07-29T14:17:03;2.50;;;1.92;;
13560;SDS011;6852;51.686;5.314;2022-07-29T14:19:33;3.03;;;1.83;;
13560;SDS011;6852;51.686;5.314;2022-07-29T14:22:05;3.85;;;1.77;;
13560;SDS011;6852;51.686;5.314;2022-07-29T14:24:34;3.70;;;1.60;;
13560;SDS011;6852;51.686;5.314;2022-07-29T14:27:03;4.88;;;1.65;;
13560;SDS011;6852;51.686;5.314;2022-07-29T14:29:31;4.63;;;1.33;;
13560;SDS011;6852;51.686;5.314;2022-07-29T14:32:03;3.67;;;1.57;;
13560;SDS011;6852;51.686;5.314;2022-07-29T14:34:38;5.10;;;1.80;;
13560;SDS011;6852;51.686;5.314;2022-07-29T14:37:05;3.30;;;1.73;;
13560;SDS011;6852;51.686;5.314;2022-07-29T14:39:33;3.95;;;1.63;;
13560;SDS011;6852;51.686;5.314;2022-07-29T14:42:07;2.67;;;1.60;;
13560;SDS011;6852;51.686;5.314;2022-07-29T14:44:37;4.20;;;1.50;;
13560;SDS011;6852;51.686;5.314;2022-07-29T14:47:04;2.67;;;1.42;;
13560;SDS011;6852;51.686;5.314;2022-07-29T14:49:33;3.55;;;1.60;;
13560;SDS011;6852;51.686;5.314;2022-07-29T14:52:00;6.15;;;1.45;;
13560;SDS011;6852;51.686;5.314;2022-07-29T14:54:27;3.30;;;1.95;;
13560;SDS011;6852;51.686;5.314;2022-07-29T14:56:54;3.95;;;1.60;;
13560;SDS011;6852;51.686;5.314;2022-07-29T14:59:23;4.28;;;2.25;;
13560;SDS011;6852;51.686;5.314;2022-07-29T15:01:51;2.13;;;1.55;;
13560;SDS011;6852;51.686;5.314;2022-07-29T15:04:19;7.28;;;2.47;;
13560;SDS011;6852;51.686;5.314;2022-07-29T15:06:46;3.97;;;1.30;;
13560;SDS011;6852;51.686;5.314;2022-07-29T15:09:13;3.73;;;1.50;;
13560;SDS011;6852;51.686;5.314;2022-07-29T15:11:40;4.03;;;1.50;;
13560;SDS011;6852;51.686;5.314;2022-07-29T15:14:07;3.90;;;1.70;;
13560;SDS011;6852;51.686;5.314;2022-07-29T15:16:38;2.53;;;1.13;;
13560;SDS011;6852;51.686;5.314;2022-07-29T15:19:09;1.90;;;1.30;;
13560;SDS011;6852;51.686;5.314;2022-07-29T15:21:36;2.23;;;1.20;;
13560;SDS011;6852;51.686;5.314;2022-07-29T15:24:13;5.73;;;2.03;;
13560;SDS011;6852;51.686;5.314;2022-07-29T15:26:40;5.83;;;1.80;;
13560;SDS011;6852;51.686;5.314;2022-07-29T15:29:08;3.00;;;1.23;;
13560;SDS011;6852;51.686;5.314;2022-07-29T15:31:35;1.97;;;1.40;;
13560;SDS011;6852;51.686;5.314;2022-07-29T15:34:02;3.77;;;1.90;;
13560;SDS011;6852;51.686;5.314;2022-07-29T15:36:31;2.23;;;1.40;;
13560;SDS011;6852;51.686;5.314;2022-07-29T15:39:18;4.80;;;2.10;;
13560;SDS011;6852;51.686;5.314;2022-07-29T15:41:45;2.93;;;1.30;;
13560;SDS011;6852;51.686;5.314;2022-07-29T15:44:12;2.33;;;1.30;;
13560;SDS011;6852;51.686;5.314;2022-07-29T15:46:39;4.00;;;1.40;;
13560;SDS011;6852;51.686;5.314;2022-07-29T15:49:26;3.40;;;1.40;;
13560;SDS011;6852;51.686;5.314;2022-07-29T15:52:14;7.43;;;1.40;;
13560;SDS011;6852;51.686;5.314;2022-07-29T15:54:51;2.63;;;1.40;;
13560;SDS011;6852;51.686;5.314;2022-07-29T15:57:22;3.87;;;1.40;;
13560;SDS011;6852;51.686;5.314;2022-07-29T15:59:49;3.00;;;1.40;;
13560;SDS011;6852;51.686;5.314;2022-07-29T16:02:17;1.97;;;1.77;;
13560;SDS011;6852;51.686;5.314;2022-07-29T16:04:44;1.87;;;1.47;;
13560;SDS011;6852;51.686;5.314;2022-07-29T16:07:11;2.77;;;1.17;;
13560;SDS011;6852;51.686;5.314;2022-07-29T16:09:39;2.70;;;1.27;;
13560;SDS011;6852;51.686;5.314;2022-07-29T16:12:06;6.53;;;2.40;;
13560;SDS011;6852;51.686;5.314;2022-07-29T16:14:40;9.05;;;6.70;;
13560;SDS011;6852;51.686;5.314;2022-07-29T16:17:08;9.63;;;7.07;;
13560;SDS011;6852;51.686;5.314;2022-07-29T16:19:40;9.70;;;6.27;;
13560;SDS011;6852;51.686;5.314;2022-07-29T16:22:08;12.15;;;6.97;;
13560;SDS011;6852;51.686;5.314;2022-07-29T16:24:35;20.70;;;9.60;;
13560;SDS011;6852;51.686;5.314;2022-07-29T16:27:04;6.53;;;4.50;;
13560;SDS011;6852;51.686;5.314;2022-07-29T16:29:31;2.58;;;2.38;;
13560;SDS011;6852;51.686;5.314;2022-07-29T16:31:59;3.23;;;1.50;;
13560;SDS011;6852;51.686;5.314;2022-07-29T16:34:26;2.65;;;1.67;;
13560;SDS011;6852;51.686;5.314;2022-07-29T16:36:53;6.20;;;1.63;;